sensor_id;sensor_type;location;lat;lon;timestamp;P1;durP1;ratioP1;P2;durP2;ratioP2
1785;SDS011;890;48.158;11.540;2023-04-30T00:01:52;5.00;;;4.50;;
1785;SDS011;890;48.158;11.540;2023-04-30T00:04:17;5.77;;;4.73;;
1785;SDS011;890;48.158;11.540;2023-04-30T00:06:43;4.93;;;4.30;;
1785;SDS011;890;48.158;11.540;2023-04-30T00:09:08;5.20;;;4.60;;
1785;SDS011;890;48.158;11.540;2023-04-30T00:11:34;6.47;;;5.40;;
1785;SDS011;890;48.158;11.540;2023-04-30T00:14:00;5.47;;;4.83;;
1785;SDS011;890;48.158;11.540;2023-04-30T00:16:25;5.47;;;4.57;;
1785;SDS011;890;48.158;11.540;2023-04-30T00:18:51;5.90;;;5.30;;
1785;SDS011;890;48.158;11.540;2023-04-30T00:21:16;5.43;;;4.67;;
1785;SDS011;890;48.158;11.540;2023-04-30T00:23:42;7.17;;;5.60;;
1785;SDS011;890;48.158;11.540;2023-04-30T00:26:07;6.90;;;5.80;;
1785;SDS011;890;48.158;11.540;2023-04-30T00:28:33;7.03;;;5.20;;
1785;SDS011;890;48.158;11.540;2023-04-30T00:30:58;5.97;;;5.37;;
1785;SDS011;890;48.158;11.540;2023-04-30T00:33:24;6.20;;;5.03;;
1785;SDS011;890;48.158;11.540;2023-04-30T00:35:50;7.20;;;5.07;;
1785;SDS011;890;48.158;11.540;2023-04-30T00:38:15;6.80;;;5.70;;
1785;SDS011;890;48.158;11.540;2023-04-30T00:40:41;5.73;;;5.13;;
1785;SDS011;890;48.158;11.540;2023-04-30T00:43:07;7.20;;;5.50;;
1785;SDS011;890;48.158;11.540;2023-04-30T00:45:33;6.13;;;5.50;;
1785;SDS011;890;48.158;11.540;2023-04-30T00:47:59;6.60;;;5.07;;
1785;SDS011;890;48.158;11.540;2023-04-30T00:50:24;5.80;;;5.17;;
1785;SDS011;890;48.158;11.540;2023-04-30T00:52:50;6.57;;;5.57;;
1785;SDS011;890;48.158;11.540;2023-04-30T00:55:16;5.90;;;5.20;;
1785;SDS011;890;48.158;11.540;2023-04-30T00:57:42;5.50;;;5.00;;
1785;SDS011;890;48.158;11.540;2023-04-30T01:00:08;6.30;;;5.70;;
1785;SDS011;890;48.158;11.540;2023-04-30T01:02:35;7.57;;;5.90;;
1785;SDS011;890;48.158;11.540;2023-04-30T01:05:04;6.93;;;6.10;;
1785;SDS011;890;48.158;11.540;2023-04-30T01:07:31;7.17;;;6.47;;
1785;SDS011;890;48.158;11.540;2023-04-30T01:09:58;6.23;;;5.33;;
1785;SDS011;890;48.158;11.540;2023-04-30T01:17:31;6.80;;;6.07;;
1785;SDS011;890;48.158;11.540;2023-04-30T01:20:02;6.50;;;5.67;;
1785;SDS011;890;48.158;11.540;2023-04-30T01:22:45;8.13;;;6.67;;
1785;SDS011;890;48.158;11.540;2023-04-30T01:28:15;7.03;;;5.87;;
1785;SDS011;890;48.158;11.540;2023-04-30T01:30:44;9.33;;;6.50;;
1785;SDS011;890;48.158;11.540;2023-04-30T01:33:10;8.37;;;6.23;;
1785;SDS011;890;48.158;11.540;2023-04-30T01:38:55;7.13;;;6.10;;
1785;SDS011;890;48.158;11.540;2023-04-30T01:49:48;6.50;;;5.77;;
1785;SDS011;890;48.158;11.540;2023-04-30T01:52:36;6.50;;;5.80;;
1785;SDS011;890;48.158;11.540;2023-04-30T01:58:23;7.43;;;6.63;;
1785;SDS011;890;48.158;11.540;2023-04-30T02:00:49;7.47;;;6.43;;
1785;SDS011;890;48.158;11.540;2023-04-30T02:03:16;7.67;;;6.30;;
1785;SDS011;890;48.158;11.540;2023-04-30T02:05:41;7.57;;;6.43;;
1785;SDS011;890;48.158;11.540;2023-04-30T02:08:07;8.20;;;6.43;;
1785;SDS011;890;48.158;11.540;2023-04-30T02:10:33;7.80;;;6.63;;
1785;SDS011;890;48.158;11.540;2023-04-30T02:12:58;7.17;;;6.43;;
1785;SDS011;890;48.158;11.540;2023-04-30T02:15:24;7.33;;;6.60;;
1785;SDS011;890;48.158;11.540;2023-04-30T02:17:50;9.17;;;6.50;;
1785;SDS011;890;48.158;11.540;2023-04-30T02:20:15;8.10;;;6.00;;
1785;SDS011;890;48.158;11.540;2023-04-30T02:22:41;8.73;;;7.30;;
1785;SDS011;890;48.158;11.540;2023-04-30T02:25:07;9.20;;;7.10;;
1785;SDS011;890;48.158;11.540;2023-04-30T02:27:33;8.97;;;7.10;;
1785;SDS011;890;48.158;11.540;2023-04-30T02:29:58;8.87;;;6.80;;
1785;SDS011;890;48.158;11.540;2023-04-30T02:32:24;7.97;;;6.63;;
1785;SDS011;890;48.158;11.540;2023-04-30T02:34:50;10.70;;;6.77;;
1785;SDS011;890;48.158;11.540;2023-04-30T02:37:15;7.07;;;6.00;;
1785;SDS011;890;48.158;11.540;2023-04-30T02:39:41;8.80;;;7.43;;
1785;SDS011;890;48.158;11.540;2023-04-30T02:42:07;7.43;;;6.70;;
1785;SDS011;890;48.158;11.540;2023-04-30T02:44:33;8.93;;;7.27;;
1785;SDS011;890;48.158;11.540;2023-04-30T02:46:59;9.50;;;7.20;;
1785;SDS011;890;48.158;11.540;2023-04-30T02:49:25;8.90;;;8.00;;
1785;SDS011;890;48.158;11.540;2023-04-30T02:51:51;12.20;;;7.33;;
1785;SDS011;890;48.158;11.540;2023-04-30T02:54:17;7.20;;;6.50;;
1785;SDS011;890;48.158;11.540;2023-04-30T02:56:43;8.00;;;7.10;;
1785;SDS011;890;48.158;11.540;2023-04-30T02:59:10;9.27;;;6.50;;
1785;SDS011;890;48.158;11.540;2023-04-30T03:01:36;9.10;;;7.03;;
1785;SDS011;890;48.158;11.540;2023-04-30T03:04:02;8.33;;;6.67;;
1785;SDS011;890;48.158;11.540;2023-04-30T03:06:29;11.53;;;7.13;;
1785;SDS011;890;48.158;11.540;2023-04-30T03:08:55;7.70;;;6.80;;
1785;SDS011;890;48.158;11.540;2023-04-30T03:11:20;7.43;;;6.47;;
1785;SDS011;890;48.158;11.540;2023-04-30T03:13:46;8.13;;;7.20;;
1785;SDS011;890;48.158;11.540;2023-04-30T03:16:15;8.20;;;7.40;;
1785;SDS011;890;48.158;11.540;2023-04-30T03:18:42;7.67;;;6.43;;
1785;SDS011;890;48.158;11.540;2023-04-30T03:21:07;8.93;;;7.03;;
1785;SDS011;890;48.158;11.540;2023-04-30T03:23:33;8.50;;;7.60;;
1785;SDS011;890;48.158;11.540;2023-04-30T03:25:59;10.00;;;7.93;;
1785;SDS011;890;48.158;11.540;2023-04-30T03:28:25;9.43;;;7.20;;
1785;SDS011;890;48.158;11.540;2023-04-30T03:30:50;8.90;;;7.20;;
1785;SDS011;890;48.158;11.540;2023-04-30T03:33:16;10.13;;;8.13;;
1785;SDS011;890;48.158;11.540;2023-04-30T03:35:42;8.50;;;7.10;;
1785;SDS011;890;48.158;11.540;2023-04-30T03:38:07;11.27;;;7.53;;
1785;SDS011;890;48.158;11.540;2023-04-30T03:40:33;9.90;;;8.17;;
1785;SDS011;890;48.158;11.540;2023-04-30T03:42:58;9.03;;;7.20;;
1785;SDS011;890;48.158;11.540;2023-04-30T03:45:24;7.63;;;6.93;;
1785;SDS011;890;48.158;11.540;2023-04-30T03:47:50;9.60;;;8.20;;
1785;SDS011;890;48.158;11.540;2023-04-30T03:50:16;9.83;;;8.80;;
1785;SDS011;890;48.158;11.540;2023-04-30T03:52:42;8.87;;;7.97;;
1785;SDS011;890;48.158;11.540;2023-04-30T03:55:08;9.03;;;7.70;;
1785;SDS011;890;48.158;11.540;2023-04-30T03:57:34;9.80;;;8.10;;
1785;SDS011;890;48.158;11.540;2023-04-30T04:00:00;9.63;;;8.13;;
1785;SDS011;890;48.158;11.540;2023-04-30T04:02:30;9.87;;;7.53;;
1785;SDS011;890;48.158;11.540;2023-04-30T04:04:55;9.80;;;8.67;;
1785;SDS011;890;48.158;11.540;2023-04-30T04:07:21;11.27;;;8.77;;
1785;SDS011;890;48.158;11.540;2023-04-30T04:09:47;9.60;;;8.43;;
1785;SDS011;890;48.158;11.540;2023-04-30T04:12:12;8.60;;;7.80;;
1785;SDS011;890;48.158;11.540;2023-04-30T04:14:38;8.20;;;7.40;;
1785;SDS011;890;48.158;11.540;2023-04-30T04:17:03;11.20;;;9.90;;
1785;SDS011;890;48.158;11.540;2023-04-30T04:19:29;10.27;;;7.70;;
1785;SDS011;890;48.158;11.540;2023-04-30T04:21:55;9.67;;;8.10;;
1785;SDS011;890;48.158;11.540;2023-04-30T04:24:23;9.30;;;7.93;;
1785;SDS011;890;48.158;11.540;2023-04-30T04:26:49;8.50;;;7.53;;
1785;SDS011;890;48.158;11.540;2023-04-30T04:29:15;9.10;;;7.70;;
1785;SDS011;890;48.158;11.540;2023-04-30T04:31:40;9.13;;;8.13;;
1785;SDS011;890;48.158;11.540;2023-04-30T04:34:06;8.83;;;7.87;;
1785;SDS011;890;48.158;11.540;2023-04-30T04:36:32;9.10;;;7.87;;
1785;SDS011;890;48.158;11.540;2023-04-30T04:38:58;10.03;;;8.60;;
1785;SDS011;890;48.158;11.540;2023-04-30T04:41:28;9.70;;;8.10;;
1785;SDS011;890;48.158;11.540;2023-04-30T04:43:54;9.57;;;7.93;;
1785;SDS011;890;48.158;11.540;2023-04-30T04:46:23;9.60;;;7.50;;
1785;SDS011;890;48.158;11.540;2023-04-30T04:48:50;10.73;;;8.67;;
1785;SDS011;890;48.158;11.540;2023-04-30T04:51:17;9.67;;;7.40;;
1785;SDS011;890;48.158;11.540;2023-04-30T04:53:42;9.00;;;7.27;;
1785;SDS011;890;48.158;11.540;2023-04-30T04:56:08;9.80;;;8.80;;
1785;SDS011;890;48.158;11.540;2023-04-30T04:58:34;8.00;;;7.20;;
1785;SDS011;890;48.158;11.540;2023-04-30T05:00:59;11.60;;;8.17;;
1785;SDS011;890;48.158;11.540;2023-04-30T05:03:26;10.17;;;8.30;;
1785;SDS011;890;48.158;11.540;2023-04-30T05:05:53;10.63;;;8.07;;
1785;SDS011;890;48.158;11.540;2023-04-30T05:08:19;10.00;;;8.60;;
1785;SDS011;890;48.158;11.540;2023-04-30T05:10:44;8.77;;;7.30;;
1785;SDS011;890;48.158;11.540;2023-04-30T05:13:10;10.13;;;8.87;;
1785;SDS011;890;48.158;11.540;2023-04-30T05:15:36;10.70;;;8.57;;
1785;SDS011;890;48.158;11.540;2023-04-30T05:18:01;11.03;;;8.90;;
1785;SDS011;890;48.158;11.540;2023-04-30T05:20:27;10.90;;;8.73;;
1785;SDS011;890;48.158;11.540;2023-04-30T05:22:53;9.53;;;8.57;;
1785;SDS011;890;48.158;11.540;2023-04-30T05:25:18;12.77;;;8.23;;
1785;SDS011;890;48.158;11.540;2023-04-30T05:27:44;10.73;;;7.97;;
1785;SDS011;890;48.158;11.540;2023-04-30T05:30:10;11.10;;;8.97;;
1785;SDS011;890;48.158;11.540;2023-04-30T05:32:35;9.00;;;8.10;;
1785;SDS011;890;48.158;11.540;2023-04-30T05:35:01;9.90;;;7.63;;
1785;SDS011;890;48.158;11.540;2023-04-30T05:37:27;10.27;;;8.30;;
1785;SDS011;890;48.158;11.540;2023-04-30T05:39:52;11.13;;;8.30;;
1785;SDS011;890;48.158;11.540;2023-04-30T05:42:21;8.87;;;7.83;;
1785;SDS011;890;48.158;11.540;2023-04-30T05:44:47;8.57;;;7.60;;
1785;SDS011;890;48.158;11.540;2023-04-30T05:47:13;9.20;;;8.03;;
1785;SDS011;890;48.158;11.540;2023-04-30T05:49:39;8.87;;;7.93;;
1785;SDS011;890;48.158;11.540;2023-04-30T05:52:04;9.27;;;8.20;;
1785;SDS011;890;48.158;11.540;2023-04-30T05:54:30;10.13;;;7.90;;
1785;SDS011;890;48.158;11.540;2023-04-30T05:56:56;9.20;;;8.20;;
1785;SDS011;890;48.158;11.540;2023-04-30T05:59:21;10.20;;;7.87;;
1785;SDS011;890;48.158;11.540;2023-04-30T06:01:47;9.07;;;8.17;;
1785;SDS011;890;48.158;11.540;2023-04-30T06:04:13;8.70;;;7.80;;
1785;SDS011;890;48.158;11.540;2023-04-30T06:06:38;8.70;;;7.57;;
1785;SDS011;890;48.158;11.540;2023-04-30T06:09:04;9.57;;;7.80;;
1785;SDS011;890;48.158;11.540;2023-04-30T06:11:29;8.60;;;7.53;;
1785;SDS011;890;48.158;11.540;2023-04-30T06:13:55;9.47;;;8.10;;
1785;SDS011;890;48.158;11.540;2023-04-30T06:16:21;8.17;;;7.37;;
1785;SDS011;890;48.158;11.540;2023-04-30T06:18:47;9.33;;;7.77;;
1785;SDS011;890;48.158;11.540;2023-04-30T06:21:13;10.93;;;7.80;;
1785;SDS011;890;48.158;11.540;2023-04-30T06:23:38;13.83;;;8.53;;
1785;SDS011;890;48.158;11.540;2023-04-30T06:26:04;8.80;;;7.90;;
1785;SDS011;890;48.158;11.540;2023-04-30T06:28:29;9.40;;;7.53;;
1785;SDS011;890;48.158;11.540;2023-04-30T06:30:55;8.27;;;7.47;;
1785;SDS011;890;48.158;11.540;2023-04-30T06:33:21;10.20;;;8.27;;
1785;SDS011;890;48.158;11.540;2023-04-30T06:35:46;7.90;;;7.10;;
1785;SDS011;890;48.158;11.540;2023-04-30T06:38:14;9.00;;;7.27;;
1785;SDS011;890;48.158;11.540;2023-04-30T06:40:41;8.90;;;7.60;;
1785;SDS011;890;48.158;11.540;2023-04-30T06:43:07;10.00;;;7.60;;
1785;SDS011;890;48.158;11.540;2023-04-30T06:45:33;8.93;;;8.00;;
1785;SDS011;890;48.158;11.540;2023-04-30T06:47:59;8.87;;;6.50;;
1785;SDS011;890;48.158;11.540;2023-04-30T06:50:25;7.07;;;6.37;;
1785;SDS011;890;48.158;11.540;2023-04-30T06:52:51;7.67;;;6.60;;
1785;SDS011;890;48.158;11.540;2023-04-30T06:55:17;9.57;;;6.70;;
1785;SDS011;890;48.158;11.540;2023-04-30T06:57:42;8.50;;;6.77;;
1785;SDS011;890;48.158;11.540;2023-04-30T07:00:09;8.00;;;6.00;;
1785;SDS011;890;48.158;11.540;2023-04-30T07:02:35;8.50;;;6.70;;
1785;SDS011;890;48.158;11.540;2023-04-30T07:05:00;8.60;;;7.00;;
1785;SDS011;890;48.158;11.540;2023-04-30T07:07:26;7.97;;;6.90;;
1785;SDS011;890;48.158;11.540;2023-04-30T07:09:52;7.40;;;6.60;;
1785;SDS011;890;48.158;11.540;2023-04-30T07:12:18;6.60;;;5.83;;
1785;SDS011;890;48.158;11.540;2023-04-30T07:14:45;7.10;;;6.33;;
1785;SDS011;890;48.158;11.540;2023-04-30T07:17:10;6.93;;;6.20;;
1785;SDS011;890;48.158;11.540;2023-04-30T07:19:36;7.20;;;6.50;;
1785;SDS011;890;48.158;11.540;2023-04-30T07:22:02;7.87;;;7.07;;
1785;SDS011;890;48.158;11.540;2023-04-30T07:24:27;7.20;;;6.50;;
1785;SDS011;890;48.158;11.540;2023-04-30T07:26:53;6.27;;;5.63;;
1785;SDS011;890;48.158;11.540;2023-04-30T07:29:19;7.00;;;6.30;;
1785;SDS011;890;48.158;11.540;2023-04-30T07:31:45;7.10;;;6.40;;
1785;SDS011;890;48.158;11.540;2023-04-30T07:34:11;7.07;;;6.37;;
1785;SDS011;890;48.158;11.540;2023-04-30T07:36:37;7.30;;;6.60;;
1785;SDS011;890;48.158;11.540;2023-04-30T07:39:03;6.90;;;6.20;;
1785;SDS011;890;48.158;11.540;2023-04-30T07:41:29;7.57;;;6.70;;
1785;SDS011;890;48.158;11.540;2023-04-30T07:43:55;7.17;;;6.10;;
1785;SDS011;890;48.158;11.540;2023-04-30T07:46:21;6.83;;;6.13;;
1785;SDS011;890;48.158;11.540;2023-04-30T07:48:48;6.97;;;6.13;;
1785;SDS011;890;48.158;11.540;2023-04-30T07:51:17;8.13;;;6.87;;
1785;SDS011;890;48.158;11.540;2023-04-30T07:53:42;6.63;;;5.90;;
1785;SDS011;890;48.158;11.540;2023-04-30T07:56:08;7.53;;;6.00;;
1785;SDS011;890;48.158;11.540;2023-04-30T07:58:34;7.37;;;6.47;;
1785;SDS011;890;48.158;11.540;2023-04-30T08:01:00;7.67;;;6.30;;
1785;SDS011;890;48.158;11.540;2023-04-30T08:03:25;7.37;;;6.30;;
1785;SDS011;890;48.158;11.540;2023-04-30T08:05:51;7.43;;;6.13;;
1785;SDS011;890;48.158;11.540;2023-04-30T08:08:17;7.17;;;6.47;;
1785;SDS011;890;48.158;11.540;2023-04-30T08:10:42;7.33;;;6.43;;
1785;SDS011;890;48.158;11.540;2023-04-30T08:13:08;7.80;;;6.63;;
1785;SDS011;890;48.158;11.540;2023-04-30T08:15:34;6.83;;;6.13;;
1785;SDS011;890;48.158;11.540;2023-04-30T08:18:01;9.03;;;8.10;;
1785;SDS011;890;48.158;11.540;2023-04-30T08:20:26;8.60;;;7.70;;
1785;SDS011;890;48.158;11.540;2023-04-30T08:22:52;9.60;;;8.20;;
1785;SDS011;890;48.158;11.540;2023-04-30T08:25:18;8.97;;;8.07;;
1785;SDS011;890;48.158;11.540;2023-04-30T08:27:43;10.50;;;8.93;;
1785;SDS011;890;48.158;11.540;2023-04-30T08:30:10;9.47;;;8.53;;
1785;SDS011;890;48.158;11.540;2023-04-30T08:32:36;9.20;;;8.30;;
1785;SDS011;890;48.158;11.540;2023-04-30T08:35:02;8.63;;;7.50;;
1785;SDS011;890;48.158;11.540;2023-04-30T08:37:28;9.30;;;8.40;;
1785;SDS011;890;48.158;11.540;2023-04-30T08:39:54;9.13;;;7.43;;
1785;SDS011;890;48.158;11.540;2023-04-30T08:42:20;9.30;;;8.40;;
1785;SDS011;890;48.158;11.540;2023-04-30T08:44:50;9.00;;;7.60;;
1785;SDS011;890;48.158;11.540;2023-04-30T08:47:15;8.00;;;7.17;;
1785;SDS011;890;48.158;11.540;2023-04-30T08:49:42;7.13;;;6.43;;
1785;SDS011;890;48.158;11.540;2023-04-30T08:52:09;7.03;;;6.33;;
1785;SDS011;890;48.158;11.540;2023-04-30T08:54:35;6.87;;;6.17;;
1785;SDS011;890;48.158;11.540;2023-04-30T08:57:01;6.80;;;6.20;;
1785;SDS011;890;48.158;11.540;2023-04-30T08:59:27;7.33;;;6.17;;
1785;SDS011;890;48.158;11.540;2023-04-30T09:01:53;6.40;;;5.80;;
1785;SDS011;890;48.158;11.540;2023-04-30T09:04:18;5.60;;;5.10;;
1785;SDS011;890;48.158;11.540;2023-04-30T09:06:44;6.63;;;5.73;;
1785;SDS011;890;48.158;11.540;2023-04-30T09:09:10;6.27;;;5.70;;
1785;SDS011;890;48.158;11.540;2023-04-30T09:11:40;5.50;;;5.00;;
1785;SDS011;890;48.158;11.540;2023-04-30T09:14:06;7.20;;;6.30;;
1785;SDS011;890;48.158;11.540;2023-04-30T09:19:28;5.80;;;5.20;;
1785;SDS011;890;48.158;11.540;2023-04-30T09:21:54;5.63;;;5.03;;
1785;SDS011;890;48.158;11.540;2023-04-30T09:24:21;5.77;;;5.27;;
1785;SDS011;890;48.158;11.540;2023-04-30T09:26:47;5.73;;;4.80;;
1785;SDS011;890;48.158;11.540;2023-04-30T09:29:13;5.50;;;5.00;;
1785;SDS011;890;48.158;11.540;2023-04-30T09:31:44;5.30;;;4.60;;
1785;SDS011;890;48.158;11.540;2023-04-30T09:34:11;5.83;;;5.13;;
1785;SDS011;890;48.158;11.540;2023-04-30T09:36:36;5.67;;;4.83;;
1785;SDS011;890;48.158;11.540;2023-04-30T09:39:15;5.20;;;4.40;;
1785;SDS011;890;48.158;11.540;2023-04-30T09:41:44;5.77;;;5.17;;
1785;SDS011;890;48.158;11.540;2023-04-30T09:44:25;5.40;;;4.90;;
1785;SDS011;890;48.158;11.540;2023-04-30T09:46:56;6.23;;;5.57;;
1785;SDS011;890;48.158;11.540;2023-04-30T09:49:22;6.50;;;5.70;;
1785;SDS011;890;48.158;11.540;2023-04-30T09:51:55;6.13;;;5.53;;
1785;SDS011;890;48.158;11.540;2023-04-30T09:54:23;6.13;;;5.30;;
1785;SDS011;890;48.158;11.540;2023-04-30T09:56:51;6.00;;;5.40;;
1785;SDS011;890;48.158;11.540;2023-04-30T09:59:18;7.60;;;6.90;;
1785;SDS011;890;48.158;11.540;2023-04-30T10:01:47;6.10;;;5.60;;
1785;SDS011;890;48.158;11.540;2023-04-30T10:04:15;7.07;;;6.37;;
1785;SDS011;890;48.158;11.540;2023-04-30T10:06:41;7.43;;;6.73;;
1785;SDS011;890;48.158;11.540;2023-04-30T10:09:07;6.90;;;6.30;;
1785;SDS011;890;48.158;11.540;2023-04-30T10:11:33;6.63;;;6.03;;
1785;SDS011;890;48.158;11.540;2023-04-30T10:14:03;6.40;;;5.80;;
1785;SDS011;890;48.158;11.540;2023-04-30T10:19:23;6.83;;;5.50;;
1785;SDS011;890;48.158;11.540;2023-04-30T10:21:54;6.93;;;6.20;;
1785;SDS011;890;48.158;11.540;2023-04-30T10:24:20;6.67;;;5.33;;
1785;SDS011;890;48.158;11.540;2023-04-30T10:26:46;6.07;;;5.47;;
1785;SDS011;890;48.158;11.540;2023-04-30T10:29:13;6.30;;;5.70;;
1785;SDS011;890;48.158;11.540;2023-04-30T10:31:40;7.67;;;6.20;;
1785;SDS011;890;48.158;11.540;2023-04-30T10:36:43;5.70;;;5.17;;
1785;SDS011;890;48.158;11.540;2023-04-30T10:39:12;5.33;;;4.83;;
1785;SDS011;890;48.158;11.540;2023-04-30T10:41:43;5.70;;;5.20;;
1785;SDS011;890;48.158;11.540;2023-04-30T10:44:11;5.03;;;4.53;;
1785;SDS011;890;48.158;11.540;2023-04-30T10:46:37;6.53;;;4.93;;
1785;SDS011;890;48.158;11.540;2023-04-30T10:49:03;4.77;;;4.30;;
1785;SDS011;890;48.158;11.540;2023-04-30T10:51:48;4.63;;;4.23;;
1785;SDS011;890;48.158;11.540;2023-04-30T10:54:26;4.37;;;3.97;;
1785;SDS011;890;48.158;11.540;2023-04-30T10:56:53;4.77;;;4.30;;
1785;SDS011;890;48.158;11.540;2023-04-30T10:59:34;4.40;;;3.90;;
1785;SDS011;890;48.158;11.540;2023-04-30T11:02:00;5.27;;;4.83;;
1785;SDS011;890;48.158;11.540;2023-04-30T11:04:27;4.97;;;4.57;;
1785;SDS011;890;48.158;11.540;2023-04-30T11:09:23;4.80;;;4.40;;
1785;SDS011;890;48.158;11.540;2023-04-30T11:12:02;4.53;;;4.13;;
1785;SDS011;890;48.158;11.540;2023-04-30T11:14:52;5.10;;;4.70;;
1785;SDS011;890;48.158;11.540;2023-04-30T11:17:45;4.80;;;4.40;;
1785;SDS011;890;48.158;11.540;2023-04-30T11:20:13;5.07;;;3.97;;
1785;SDS011;890;48.158;11.540;2023-04-30T11:22:43;4.40;;;4.00;;
1785;SDS011;890;48.158;11.540;2023-04-30T11:25:09;4.00;;;3.70;;
1785;SDS011;890;48.158;11.540;2023-04-30T11:27:38;4.43;;;4.03;;
1785;SDS011;890;48.158;11.540;2023-04-30T11:30:13;4.07;;;3.67;;
1785;SDS011;890;48.158;11.540;2023-04-30T11:32:42;4.13;;;3.80;;
1785;SDS011;890;48.158;11.540;2023-04-30T11:35:11;5.33;;;3.77;;
1785;SDS011;890;48.158;11.540;2023-04-30T11:37:41;3.80;;;3.33;;
1785;SDS011;890;48.158;11.540;2023-04-30T11:40:09;4.10;;;3.70;;
1785;SDS011;890;48.158;11.540;2023-04-30T11:42:39;5.10;;;3.30;;
1785;SDS011;890;48.158;11.540;2023-04-30T11:45:08;4.60;;;3.50;;
1785;SDS011;890;48.158;11.540;2023-04-30T11:47:38;3.57;;;3.27;;
1785;SDS011;890;48.158;11.540;2023-04-30T11:50:09;4.20;;;3.80;;
1785;SDS011;890;48.158;11.540;2023-04-30T11:52:40;3.63;;;3.33;;
1785;SDS011;890;48.158;11.540;2023-04-30T11:55:07;4.47;;;4.07;;
1785;SDS011;890;48.158;11.540;2023-04-30T11:57:44;3.80;;;3.50;;
1785;SDS011;890;48.158;11.540;2023-04-30T12:00:12;4.20;;;3.80;;
1785;SDS011;890;48.158;11.540;2023-04-30T12:02:38;3.93;;;3.57;;
1785;SDS011;890;48.158;11.540;2023-04-30T12:05:10;4.60;;;4.20;;
1785;SDS011;890;48.158;11.540;2023-04-30T12:07:38;4.30;;;3.90;;
1785;SDS011;890;48.158;11.540;2023-04-30T12:10:04;3.83;;;3.47;;
1785;SDS011;890;48.158;11.540;2023-04-30T12:12:30;5.33;;;4.90;;
1785;SDS011;890;48.158;11.540;2023-04-30T12:14:56;4.40;;;4.00;;
1785;SDS011;890;48.158;11.540;2023-04-30T12:17:34;4.57;;;3.67;;
1785;SDS011;890;48.158;11.540;2023-04-30T12:20:00;4.27;;;3.87;;
1785;SDS011;890;48.158;11.540;2023-04-30T12:22:26;4.43;;;4.03;;
1785;SDS011;890;48.158;11.540;2023-04-30T12:24:53;4.40;;;4.00;;
1785;SDS011;890;48.158;11.540;2023-04-30T12:27:20;4.63;;;4.20;;
1785;SDS011;890;48.158;11.540;2023-04-30T12:29:46;4.70;;;4.30;;
1785;SDS011;890;48.158;11.540;2023-04-30T12:32:14;4.83;;;4.40;;
1785;SDS011;890;48.158;11.540;2023-04-30T12:34:43;4.70;;;4.30;;
1785;SDS011;890;48.158;11.540;2023-04-30T12:37:09;4.10;;;3.80;;
1785;SDS011;890;48.158;11.540;2023-04-30T12:39:34;6.13;;;4.87;;
1785;SDS011;890;48.158;11.540;2023-04-30T12:42:01;4.53;;;4.13;;
1785;SDS011;890;48.158;11.540;2023-04-30T12:44:27;5.30;;;4.80;;
1785;SDS011;890;48.158;11.540;2023-04-30T12:46:54;4.30;;;3.90;;
1785;SDS011;890;48.158;11.540;2023-04-30T12:49:28;5.40;;;4.23;;
1785;SDS011;890;48.158;11.540;2023-04-30T12:52:04;3.93;;;3.63;;
1785;SDS011;890;48.158;11.540;2023-04-30T12:54:33;4.27;;;3.87;;
1785;SDS011;890;48.158;11.540;2023-04-30T12:57:07;6.47;;;4.10;;
1785;SDS011;890;48.158;11.540;2023-04-30T12:59:35;5.13;;;4.60;;
1785;SDS011;890;48.158;11.540;2023-04-30T13:02:12;4.93;;;4.53;;
1785;SDS011;890;48.158;11.540;2023-04-30T13:04:39;4.20;;;3.80;;
1785;SDS011;890;48.158;11.540;2023-04-30T13:07:06;4.20;;;3.80;;
1785;SDS011;890;48.158;11.540;2023-04-30T13:09:32;4.20;;;3.80;;
1785;SDS011;890;48.158;11.540;2023-04-30T13:11:59;4.77;;;4.37;;
1785;SDS011;890;48.158;11.540;2023-04-30T13:14:25;3.80;;;3.50;;
1785;SDS011;890;48.158;11.540;2023-04-30T13:16:51;4.53;;;3.97;;
1785;SDS011;890;48.158;11.540;2023-04-30T13:19:17;3.97;;;3.63;;
1785;SDS011;890;48.158;11.540;2023-04-30T13:21:43;4.23;;;3.83;;
1785;SDS011;890;48.158;11.540;2023-04-30T13:24:09;4.70;;;3.90;;
1785;SDS011;890;48.158;11.540;2023-04-30T13:26:34;4.20;;;3.90;;
1785;SDS011;890;48.158;11.540;2023-04-30T13:29:00;4.33;;;3.93;;
1785;SDS011;890;48.158;11.540;2023-04-30T13:31:28;3.80;;;3.40;;
1785;SDS011;890;48.158;11.540;2023-04-30T13:33:54;4.37;;;3.97;;
1785;SDS011;890;48.158;11.540;2023-04-30T13:36:20;3.60;;;3.30;;
1785;SDS011;890;48.158;11.540;2023-04-30T13:38:45;4.00;;;3.33;;
1785;SDS011;890;48.158;11.540;2023-04-30T13:41:11;3.70;;;3.40;;
1785;SDS011;890;48.158;11.540;2023-04-30T13:43:37;3.90;;;3.60;;
1785;SDS011;890;48.158;11.540;2023-04-30T13:46:05;3.73;;;3.33;;
1785;SDS011;890;48.158;11.540;2023-04-30T13:48:30;4.23;;;3.80;;
1785;SDS011;890;48.158;11.540;2023-04-30T13:50:56;3.60;;;3.10;;
1785;SDS011;890;48.158;11.540;2023-04-30T13:53:22;3.60;;;3.30;;
1785;SDS011;890;48.158;11.540;2023-04-30T13:55:48;3.60;;;3.30;;
1785;SDS011;890;48.158;11.540;2023-04-30T13:58:13;3.67;;;2.97;;
1785;SDS011;890;48.158;11.540;2023-04-30T14:00:39;3.40;;;3.10;;
1785;SDS011;890;48.158;11.540;2023-04-30T14:03:05;3.50;;;3.23;;
1785;SDS011;890;48.158;11.540;2023-04-30T14:05:32;3.43;;;3.13;;
1785;SDS011;890;48.158;11.540;2023-04-30T14:07:57;3.60;;;3.30;;
1785;SDS011;890;48.158;11.540;2023-04-30T14:10:23;4.30;;;3.10;;
1785;SDS011;890;48.158;11.540;2023-04-30T14:12:49;3.07;;;2.87;;
1785;SDS011;890;48.158;11.540;2023-04-30T14:15:15;4.10;;;3.70;;
1785;SDS011;890;48.158;11.540;2023-04-30T14:17:40;3.73;;;3.43;;
1785;SDS011;890;48.158;11.540;2023-04-30T14:20:06;3.50;;;3.20;;
1785;SDS011;890;48.158;11.540;2023-04-30T14:22:33;6.93;;;3.63;;
1785;SDS011;890;48.158;11.540;2023-04-30T14:25:02;3.70;;;3.40;;
1785;SDS011;890;48.158;11.540;2023-04-30T14:27:28;3.43;;;3.13;;
1785;SDS011;890;48.158;11.540;2023-04-30T14:29:55;3.40;;;3.10;;
1785;SDS011;890;48.158;11.540;2023-04-30T14:32:20;4.20;;;3.37;;
1785;SDS011;890;48.158;11.540;2023-04-30T14:34:49;3.97;;;3.57;;
1785;SDS011;890;48.158;11.540;2023-04-30T14:37:14;3.57;;;3.20;;
1785;SDS011;890;48.158;11.540;2023-04-30T14:39:40;3.90;;;3.50;;
1785;SDS011;890;48.158;11.540;2023-04-30T14:42:06;3.33;;;3.03;;
1785;SDS011;890;48.158;11.540;2023-04-30T14:44:32;3.37;;;3.07;;
1785;SDS011;890;48.158;11.540;2023-04-30T14:46:58;4.10;;;3.70;;
1785;SDS011;890;48.158;11.540;2023-04-30T14:49:24;3.47;;;3.17;;
1785;SDS011;890;48.158;11.540;2023-04-30T14:51:50;3.70;;;3.40;;
1785;SDS011;890;48.158;11.540;2023-04-30T14:54:16;3.80;;;3.43;;
1785;SDS011;890;48.158;11.540;2023-04-30T14:56:41;4.40;;;3.77;;
1785;SDS011;890;48.158;11.540;2023-04-30T14:59:08;3.97;;;3.67;;
1785;SDS011;890;48.158;11.540;2023-04-30T15:01:34;3.60;;;3.30;;
1785;SDS011;890;48.158;11.540;2023-04-30T15:04:00;4.17;;;3.47;;
1785;SDS011;890;48.158;11.540;2023-04-30T15:06:26;3.83;;;3.50;;
1785;SDS011;890;48.158;11.540;2023-04-30T15:08:51;5.00;;;3.17;;
1785;SDS011;890;48.158;11.540;2023-04-30T15:11:17;4.00;;;3.57;;
1785;SDS011;890;48.158;11.540;2023-04-30T15:13:43;3.93;;;3.50;;
1785;SDS011;890;48.158;11.540;2023-04-30T15:16:09;3.80;;;3.37;;
1785;SDS011;890;48.158;11.540;2023-04-30T15:18:35;3.93;;;3.53;;
1785;SDS011;890;48.158;11.540;2023-04-30T15:21:01;3.97;;;3.67;;
1785;SDS011;890;48.158;11.540;2023-04-30T15:23:26;4.03;;;3.23;;
1785;SDS011;890;48.158;11.540;2023-04-30T15:25:52;4.53;;;4.13;;
1785;SDS011;890;48.158;11.540;2023-04-30T15:28:18;3.97;;;3.67;;
1785;SDS011;890;48.158;11.540;2023-04-30T15:30:43;4.10;;;3.80;;
1785;SDS011;890;48.158;11.540;2023-04-30T15:33:09;4.60;;;3.57;;
1785;SDS011;890;48.158;11.540;2023-04-30T15:35:36;4.00;;;3.60;;
1785;SDS011;890;48.158;11.540;2023-04-30T15:38:02;3.97;;;3.67;;
1785;SDS011;890;48.158;11.540;2023-04-30T15:40:27;4.20;;;3.33;;
1785;SDS011;890;48.158;11.540;2023-04-30T15:42:53;3.93;;;3.50;;
1785;SDS011;890;48.158;11.540;2023-04-30T15:45:19;4.17;;;3.77;;
1785;SDS011;890;48.158;11.540;2023-04-30T15:47:44;4.37;;;3.70;;